sensor_id;sensor_type;location;lat;lon;timestamp;pressure;altitude;pressure_sealevel;temperature;humidity
7760;BME280;3924;48.830;9.262;2022-09-30T16:14:33;98125.13;;;14.94;57.07
7760;BME280;3924;48.830;9.262;2022-09-30T16:17:06;98124.22;;;14.90;57.46
7760;BME280;3924;48.830;9.262;2022-09-30T16:19:40;98128.59;;;14.83;57.20
7760;BME280;3924;48.830;9.262;2022-09-30T16:25:02;98129.03;;;14.64;58.02
7760;BME280;3924;48.830;9.262;2022-09-30T16:27:29;98135.63;;;14.54;58.73
7760;BME280;3924;48.830;9.262;2022-09-30T16:29:57;98138.38;;;14.45;58.38
7760;BME280;3924;48.830;9.262;2022-09-30T16:32:24;98131.72;;;14.34;58.37
7760;BME280;3924;48.830;9.262;2022-09-30T16:34:54;98122.91;;;14.29;59.12
7760;BME280;3924;48.830;9.262;2022-09-30T16:37:20;98131.72;;;14.34;58.70
7760;BME280;3924;48.830;9.262;2022-09-30T16:39:47;98130.09;;;14.33;58.67
7760;BME280;3924;48.830;9.262;2022-09-30T16:42:15;98137.00;;;14.31;59.34
7760;BME280;3924;48.830;9.262;2022-09-30T16:44:42;98143.75;;;14.24;59.54
7760;BME280;3924;48.830;9.262;2022-09-30T16:47:12;98140.28;;;14.15;59.66
7760;BME280;3924;48.830;9.262;2022-09-30T16:49:40;98140.78;;;14.09;60.10
7760;BME280;3924;48.830;9.262;2022-09-30T16:52:10;98135.66;;;13.99;60.43
7760;BME280;3924;48.830;9.262;2022-09-30T16:54:36;98139.69;;;13.92;60.71
7760;BME280;3924;48.830;9.262;2022-09-30T16:57:03;98136.84;;;13.80;60.81
7760;BME280;3924;48.830;9.262;2022-09-30T16:59:29;98132.19;;;13.72;60.63
7760;BME280;3924;48.830;9.262;2022-09-30T17:01:59;98136.41;;;13.61;61.52
7760;BME280;3924;48.830;9.262;2022-09-30T17:04:26;98144.09;;;13.50;61.84
7760;BME280;3924;48.830;9.262;2022-09-30T17:06:55;98142.97;;;13.43;62.25
7760;BME280;3924;48.830;9.262;2022-09-30T17:09:22;98141.53;;;13.36;62.60
7760;BME280;3924;48.830;9.262;2022-09-30T17:11:49;98151.31;;;13.29;62.95
7760;BME280;3924;48.830;9.262;2022-09-30T17:14:18;98161.06;;;13.21;63.23
7760;BME280;3924;48.830;9.262;2022-09-30T17:16:45;98161.84;;;13.13;63.66
7760;BME280;3924;48.830;9.262;2022-09-30T17:19:12;98163.91;;;13.07;63.90
7760;BME280;3924;48.830;9.262;2022-09-30T17:21:39;98167.75;;;12.98;64.05
7760;BME280;3924;48.830;9.262;2022-09-30T17:24:05;98165.00;;;12.89;64.46
7760;BME280;3924;48.830;9.262;2022-09-30T17:26:32;98163.25;;;12.84;64.35
7760;BME280;3924;48.830;9.262;2022-09-30T17:28:59;98173.13;;;12.80;64.69
7760;BME280;3924;48.830;9.262;2022-09-30T17:31:46;98175.03;;;12.71;65.40
7760;BME280;3924;48.830;9.262;2022-09-30T17:34:12;98182.69;;;12.69;65.58
7760;BME280;3924;48.830;9.262;2022-09-30T17:36:42;98167.66;;;12.63;65.50
7760;BME280;3924;48.830;9.262;2022-09-30T17:39:09;98178.38;;;12.59;66.00
7760;BME280;3924;48.830;9.262;2022-09-30T17:41:36;98184.44;;;12.56;65.74
7760;BME280;3924;48.830;9.262;2022-09-30T17:44:21;98179.75;;;12.48;66.35
7760;BME280;3924;48.830;9.262;2022-09-30T17:46:49;98172.03;;;12.42;66.59
7760;BME280;3924;48.830;9.262;2022-09-30T17:49:33;98185.81;;;12.37;66.53
7760;BME280;3924;48.830;9.262;2022-09-30T17:52:01;98175.19;;;12.26;66.82
7760;BME280;3924;48.830;9.262;2022-09-30T17:54:28;98184.59;;;12.20;67.43
7760;BME280;3924;48.830;9.262;2022-09-30T17:56:55;98193.38;;;12.17;67.77
7760;BME280;3924;48.830;9.262;2022-09-30T17:59:23;98195.41;;;12.12;67.97
7760;BME280;3924;48.830;9.262;2022-09-30T18:01:51;98186.59;;;12.06;68.01
7760;BME280;3924;48.830;9.262;2022-09-30T18:04:18;98193.25;;;12.00;67.95
7760;BME280;3924;48.830;9.262;2022-09-30T18:06:47;98188.47;;;11.97;68.28
7760;BME280;3924;48.830;9.262;2022-09-30T18:09:14;98198.34;;;11.93;68.56
7760;BME280;3924;48.830;9.262;2022-09-30T18:11:40;98196.25;;;11.90;68.87
7760;BME280;3924;48.830;9.262;2022-09-30T18:14:10;98203.13;;;11.87;68.92
7760;BME280;3924;48.830;9.262;2022-09-30T18:16:36;98196.38;;;11.85;69.28
7760;BME280;3924;48.830;9.262;2022-09-30T18:19:05;98196.78;;;11.78;69.07
7760;BME280;3924;48.830;9.262;2022-09-30T18:21:35;98193.88;;;11.74;69.06
7760;BME280;3924;48.830;9.262;2022-09-30T18:24:03;98200.53;;;11.68;69.47
7760;BME280;3924;48.830;9.262;2022-09-30T18:26:31;98202.88;;;11.61;69.72
7760;BME280;3924;48.830;9.262;2022-09-30T18:29:01;98210.53;;;11.59;69.90
7760;BME280;3924;48.830;9.262;2022-09-30T18:31:28;98213.38;;;11.54;69.91
7760;BME280;3924;48.830;9.262;2022-09-30T18:34:00;98221.00;;;11.52;70.32
7760;BME280;3924;48.830;9.262;2022-09-30T18:36:27;98217.00;;;11.49;70.48
7760;BME280;3924;48.830;9.262;2022-09-30T18:39:00;98214.72;;;11.43;70.69
7760;BME280;3924;48.830;9.262;2022-09-30T18:41:28;98214.53;;;11.39;70.72
7760;BME280;3924;48.830;9.262;2022-09-30T18:43:57;98231.09;;;11.38;70.87
7760;BME280;3924;48.830;9.262;2022-09-30T18:46:29;98245.28;;;11.35;71.16
7760;BME280;3924;48.830;9.262;2022-09-30T18:48:55;98244.81;;;11.33;70.87
7760;BME280;3924;48.830;9.262;2022-09-30T18:51:22;98254.03;;;11.32;71.58
7760;BME280;3924;48.830;9.262;2022-09-30T18:53:51;98251.63;;;11.30;71.43
7760;BME280;3924;48.830;9.262;2022-09-30T18:56:21;98255.75;;;11.28;71.36
7760;BME280;3924;48.830;9.262;2022-09-30T18:58:49;98258.56;;;11.22;71.50
7760;BME280;3924;48.830;9.262;2022-09-30T19:01:17;98260.50;;;11.22;71.92
7760;BME280;3924;48.830;9.262;2022-09-30T19:03:43;98260.50;;;11.22;71.92
7760;BME280;3924;48.830;9.262;2022-09-30T19:06:10;98257.28;;;11.20;71.83
7760;BME280;3924;48.830;9.262;2022-09-30T19:08:36;98256.91;;;11.13;71.86
7760;BME280;3924;48.830;9.262;2022-09-30T19:11:10;98252.28;;;11.00;72.29
7760;BME280;3924;48.830;9.262;2022-09-30T19:13:44;98256.69;;;10.95;72.57
7760;BME280;3924;48.830;9.262;2022-09-30T19:16:13;98260.72;;;10.98;73.49
7760;BME280;3924;48.830;9.262;2022-09-30T19:18:44;98250.47;;;10.95;72.68
7760;BME280;3924;48.830;9.262;2022-09-30T19:21:13;98264.53;;;10.97;72.75
7760;BME280;3924;48.830;9.262;2022-09-30T19:23:41;98264.75;;;10.87;72.86
7760;BME280;3924;48.830;9.262;2022-09-30T19:26:08;98266.75;;;10.81;73.20
7760;BME280;3924;48.830;9.262;2022-09-30T19:28:36;98267.03;;;10.80;73.29
7760;BME280;3924;48.830;9.262;2022-09-30T19:31:14;98264.13;;;10.76;73.31
7760;BME280;3924;48.830;9.262;2022-09-30T19:33:42;98262.03;;;10.73;73.42
7760;BME280;3924;48.830;9.262;2022-09-30T19:36:23;98262.34;;;10.72;73.66
7760;BME280;3924;48.830;9.262;2022-09-30T19:38:49;98264.72;;;10.73;73.70
7760;BME280;3924;48.830;9.262;2022-09-30T19:41:28;98262.34;;;10.72;73.65
7760;BME280;3924;48.830;9.262;2022-09-30T19:43:58;98258.03;;;10.71;73.88
7760;BME280;3924;48.830;9.262;2022-09-30T19:46:28;98256.69;;;10.68;73.94
7760;BME280;3924;48.830;9.262;2022-09-30T19:48:55;98257.59;;;10.63;74.03
7760;BME280;3924;48.830;9.262;2022-09-30T19:51:21;98252.28;;;10.58;74.17
7760;BME280;3924;48.830;9.262;2022-09-30T19:53:48;98254.47;;;10.56;74.39
7760;BME280;3924;48.830;9.262;2022-09-30T19:56:31;98258.28;;;10.55;75.05
7760;BME280;3924;48.830;9.262;2022-09-30T19:58:58;98250.44;;;10.54;74.38
7760;BME280;3924;48.830;9.262;2022-09-30T20:01:26;98239.44;;;10.50;74.88
7760;BME280;3924;48.830;9.262;2022-09-30T20:03:57;98234.59;;;10.47;75.04
7760;BME280;3924;48.830;9.262;2022-09-30T20:06:30;98236.19;;;10.48;74.86
7760;BME280;3924;48.830;9.262;2022-09-30T20:08:58;98241.59;;;10.48;75.08
7760;BME280;3924;48.830;9.262;2022-09-30T20:11:27;98242.41;;;10.49;75.01
7760;BME280;3924;48.830;9.262;2022-09-30T20:13:55;98239.81;;;10.44;74.88
7760;BME280;3924;48.830;9.262;2022-09-30T20:17:01;98240.63;;;10.44;75.51
7760;BME280;3924;48.830;9.262;2022-09-30T20:19:47;98239.28;;;10.41;74.34
7760;BME280;3924;48.830;9.262;2022-09-30T20:22:58;98240.22;;;10.37;74.92
7760;BME280;3924;48.830;9.262;2022-09-30T20:25:35;98231.28;;;10.36;75.02
7760;BME280;3924;48.830;9.262;2022-09-30T20:28:22;98220.72;;;10.35;75.30
7760;BME280;3924;48.830;9.262;2022-09-30T20:30:52;98230.56;;;10.31;75.81
7760;BME280;3924;48.830;9.262;2022-09-30T20:33:21;98231.16;;;10.28;75.44
7760;BME280;3924;48.830;9.262;2022-09-30T20:36:16;98226.34;;;10.25;75.86
7760;BME280;3924;48.830;9.262;2022-09-30T20:38:55;98230.16;;;10.24;75.40
7760;BME280;3924;48.830;9.262;2022-09-30T20:41:43;98237.22;;;10.20;76.04
7760;BME280;3924;48.830;9.262;2022-09-30T20:44:48;98240.31;;;10.13;76.39
7760;BME280;3924;48.830;9.262;2022-09-30T20:47:26;98243.09;;;10.08;75.59
7760;BME280;3924;48.830;9.262;2022-09-30T20:50:27;98247.53;;;10.04;76.23
7760;BME280;3924;48.830;9.262;2022-09-30T20:53:09;98247.28;;;10.00;77.03
7760;BME280;3924;48.830;9.262;2022-09-30T20:55:48;98248.41;;;9.99;76.32
7760;BME280;3924;48.830;9.262;2022-09-30T20:58:22;98252.50;;;9.97;76.99
7760;BME280;3924;48.830;9.262;2022-09-30T21:01:33;98255.53;;;9.95;76.01
7760;BME280;3924;48.830;9.262;2022-09-30T21:04:47;98260.47;;;9.88;77.26
7760;BME280;3924;48.830;9.262;2022-09-30T21:08:28;98269.13;;;9.90;76.35
7760;BME280;3924;48.830;9.262;2022-09-30T21:11:11;98275.06;;;9.92;77.38
7760;BME280;3924;48.830;9.262;2022-09-30T21:13:52;98274.25;;;9.92;76.79
7760;BME280;3924;48.830;9.262;2022-09-30T21:16:24;98285.88;;;9.92;76.96
7760;BME280;3924;48.830;9.262;2022-09-30T21:18:58;98283.47;;;9.91;77.09
7760;BME280;3924;48.830;9.262;2022-09-30T21:21:33;98282.44;;;9.86;77.71
7760;BME280;3924;48.830;9.262;2022-09-30T21:24:23;98289.47;;;9.87;77.45
7760;BME280;3924;48.830;9.262;2022-09-30T21:27:01;98289.19;;;9.89;76.74
7760;BME280;3924;48.830;9.262;2022-09-30T21:30:14;98297.22;;;9.94;76.90
7760;BME280;3924;48.830;9.262;2022-09-30T21:33:06;98295.47;;;10.03;77.05
7760;BME280;3924;48.830;9.262;2022-09-30T21:35:40;98307.03;;;10.09;77.82
7760;BME280;3924;48.830;9.262;2022-09-30T21:38:14;98309.94;;;10.12;76.75
7760;BME280;3924;48.830;9.262;2022-09-30T21:40:59;98310.97;;;10.17;78.05
7760;BME280;3924;48.830;9.262;2022-09-30T21:43:40;98313.56;;;10.22;78.06
7760;BME280;3924;48.830;9.262;2022-09-30T21:46:17;98303.00;;;10.25;77.26
7760;BME280;3924;48.830;9.262;2022-09-30T21:48:44;98307.00;;;10.28;77.52
7760;BME280;3924;48.830;9.262;2022-09-30T21:51:11;98313.44;;;10.32;77.27
7760;BME280;3924;48.830;9.262;2022-09-30T21:53:39;98316.72;;;10.29;77.77
7760;BME280;3924;48.830;9.262;2022-09-30T21:56:06;98337.34;;;10.30;77.31
7760;BME280;3924;48.830;9.262;2022-09-30T21:58:37;98337.34;;;10.30;78.06
7760;BME280;3924;48.830;9.262;2022-09-30T22:01:05;98329.47;;;10.28;77.82
7760;BME280;3924;48.830;9.262;2022-09-30T22:03:33;98333.53;;;10.31;77.62
7760;BME280;3924;48.830;9.262;2022-09-30T22:06:05;98329.69;;;10.32;77.45
7760;BME280;3924;48.830;9.262;2022-09-30T22:08:33;98335.13;;;10.32;77.70
7760;BME280;3924;48.830;9.262;2022-09-30T22:11:02;98327.50;;;10.34;78.11
7760;BME280;3924;48.830;9.262;2022-09-30T22:13:32;98316.72;;;10.29;77.74
7760;BME280;3924;48.830;9.262;2022-09-30T22:16:03;98320.69;;;10.36;77.81
7760;BME280;3924;48.830;9.262;2022-09-30T22:18:30;98315.47;;;10.40;77.75
7760;BME280;3924;48.830;9.262;2022-09-30T22:21:04;98309.25;;;10.39;77.22
7760;BME280;3924;48.830;9.262;2022-09-30T22:23:31;98303.53;;;10.41;77.79
7760;BME280;3924;48.830;9.262;2022-09-30T22:26:05;98292.59;;;10.46;77.58
7760;BME280;3924;48.830;9.262;2022-09-30T22:28:33;98297.63;;;10.53;77.90
7760;BME280;3924;48.830;9.262;2022-09-30T22:31:14;98303.25;;;10.56;78.00
7760;BME280;3924;48.830;9.262;2022-09-30T22:33:48;98302.44;;;10.56;77.97
7760;BME280;3924;48.830;9.262;2022-09-30T22:36:34;98300.28;;;10.58;77.50
7760;BME280;3924;48.830;9.262;2022-09-30T22:39:20;98298.06;;;10.60;78.00
7760;BME280;3924;48.830;9.262;2022-09-30T22:41:47;98302.66;;;10.59;77.41
7760;BME280;3924;48.830;9.262;2022-09-30T22:44:22;98299.88;;;10.64;77.94
7760;BME280;3924;48.830;9.262;2022-09-30T22:46:52;98314.72;;;10.67;78.11
7760;BME280;3924;48.830;9.262;2022-09-30T22:49:19;98317.13;;;10.68;78.07
7760;BME280;3924;48.830;9.262;2022-09-30T22:51:53;98314.13;;;10.70;77.58
7760;BME280;3924;48.830;9.262;2022-09-30T22:54:21;98307.41;;;10.67;78.01
7760;BME280;3924;48.830;9.262;2022-09-30T22:56:49;98290.63;;;10.65;77.47
7760;BME280;3924;48.830;9.262;2022-09-30T22:59:19;98302.59;;;10.64;77.94
7760;BME280;3924;48.830;9.262;2022-09-30T23:01:46;98295.66;;;10.58;78.67
7760;BME280;3924;48.830;9.262;2022-09-30T23:04:15;98296.22;;;10.55;78.73
7760;BME280;3924;48.830;9.262;2022-09-30T23:06:47;98293.41;;;10.47;78.57
7760;BME280;3924;48.830;9.262;2022-09-30T23:09:14;98309.25;;;10.39;78.04
7760;BME280;3924;48.830;9.262;2022-09-30T23:11:43;98307.00;;;10.28;78.76
7760;BME280;3924;48.830;9.262;2022-09-30T23:14:10;98301.50;;;10.14;79.22
7760;BME280;3924;48.830;9.262;2022-09-30T23:16:40;98306.06;;;10.00;79.28
7760;BME280;3924;48.830;9.262;2022-09-30T23:19:11;98304.91;;;9.87;79.31
7760;BME280;3924;48.830;9.262;2022-09-30T23:21:47;98320.22;;;9.78;79.36
7760;BME280;3924;48.830;9.262;2022-09-30T23:24:16;98323.00;;;9.73;79.14
7760;BME280;3924;48.830;9.262;2022-09-30T23:26:50;98309.75;;;9.71;79.57
7760;BME280;3924;48.830;9.262;2022-09-30T23:29:51;98308.16;;;9.70;79.52
7760;BME280;3924;48.830;9.262;2022-09-30T23:32:17;98310.13;;;9.65;79.46
7760;BME280;3924;48.830;9.262;2022-09-30T23:34:44;98309.06;;;9.60;79.94
7760;BME280;3924;48.830;9.262;2022-09-30T23:37:10;98314.50;;;9.60;79.83
7760;BME280;3924;48.830;9.262;2022-09-30T23:39:37;98320.50;;;9.57;79.99
7760;BME280;3924;48.830;9.262;2022-09-30T23:42:03;98319.56;;;9.48;80.00
7760;BME280;3924;48.830;9.262;2022-09-30T23:44:30;98324.44;;;9.46;79.96
7760;BME280;3924;48.830;9.262;2022-09-30T23:46:56;98325.03;;;9.43;79.96
7760;BME280;3924;48.830;9.262;2022-09-30T23:49:41;98325.63;;;9.40;79.92
7760;BME280;3924;48.830;9.262;2022-09-30T23:52:09;98323.25;;;9.34;79.92
7760;BME280;3924;48.830;9.262;2022-09-30T23:54:39;98321.72;;;9.27;80.38
7760;BME280;3924;48.830;9.262;2022-09-30T23:57:06;98318.47;;;9.25;80.35
7760;BME280;3924;48.830;9.262;2022-09-30T23:59:33;98321.47;;;9.24;80.26
